Time;durP1;ratioP1;P1;durP2;ratioP2;P2;SDS_P1;SDS_P2;PMS_P1;PMS_P2;Temp;Humidity;BMP_temperature;BMP_pressure;BME280_temperature;BME280_humidity;BME280_pressure;Samples;Min_cycle;Max_cycle;Signal;HPM_P1;HPM_P2
2023/12/27 00:00:38;;;;;;;6.30;2.03;;;6.80;99.90;;;;;;5035908;28;20224;-70
2023/12/27 00:03:06;;;;;;;4.50;2.27;;;6.80;99.90;;;;;;5036097;28;20181;-72
2023/12/27 00:05:32;;;;;;;5.30;2.27;;;6.80;99.90;;;;;;5033460;28;20206;-72
2023/12/27 00:07:57;;;;;;;5.40;2.10;;;6.80;99.90;;;;;;5036465;28;20184;-71
2023/12/27 00:10:23;;;;;;;4.50;1.97;;;6.80;99.90;;;;;;5036574;28;20202;-73
2023/12/27 00:12:48;;;;;;;4.47;2.10;;;6.80;99.90;;;;;;5013193;28;20216;-72
2023/12/27 00:15:17;;;;;;;5.47;1.90;;;6.80;99.90;;;;;;5016417;28;20210;-70
2023/12/27 00:17:44;;;;;;;6.47;2.20;;;6.80;99.90;;;;;;5016259;28;20232;-73
2023/12/27 00:20:12;;;;;;;4.57;2.10;;;6.80;99.90;;;;;;5016373;28;20175;-69
2023/12/27 00:22:38;;;;;;;3.97;2.03;;;6.90;99.90;;;;;;5016474;28;20213;-72
2023/12/27 00:25:06;;;;;;;5.13;1.60;;;6.90;99.90;;;;;;5016605;28;20175;-72
2023/12/27 00:27:32;;;;;;;5.20;1.97;;;7.00;99.90;;;;;;5016412;28;20179;-72
2023/12/27 00:30:00;;;;;;;4.40;2.00;;;7.00;99.90;;;;;;5014946;28;20512;-73
2023/12/27 00:32:25;;;;;;;3.60;1.70;;;7.00;99.90;;;;;;4996645;28;20283;-71
2023/12/27 00:34:56;;;;;;;5.03;1.83;;;7.00;99.90;;;;;;4996587;28;20289;-73
2023/12/27 00:37:21;;;;;;;3.63;2.00;;;7.00;99.90;;;;;;4996628;28;20183;-71
2023/12/27 00:39:47;;;;;;;4.43;2.10;;;7.10;99.90;;;;;;5010502;28;20217;-71
2023/12/27 00:42:13;;;;;;;4.43;1.90;;;7.10;99.90;;;;;;5032599;28;20179;-72
2023/12/27 00:44:39;;;;;;;3.23;1.80;;;7.10;99.90;;;;;;5032378;28;20171;-69
2023/12/27 00:47:05;;;;;;;3.30;1.80;;;7.10;99.90;;;;;;5015471;28;20177;-72
2023/12/27 00:49:30;;;;;;;3.43;1.83;;;7.10;99.90;;;;;;5019582;28;20209;-63
2023/12/27 00:51:58;;;;;;;4.93;2.00;;;7.10;99.90;;;;;;5032199;28;20210;-64
2023/12/27 00:54:26;;;;;;;4.70;1.83;;;7.10;99.90;;;;;;5032130;28;20171;-62
2023/12/27 00:56:52;;;;;;;6.37;2.20;;;7.10;99.90;;;;;;5031539;28;20167;-62
2023/12/27 00:59:19;;;;;;;4.60;2.27;;;7.10;99.90;;;;;;5029196;28;20170;-63
2023/12/27 01:01:45;;;;;;;8.17;2.20;;;7.00;99.90;;;;;;5015561;28;20232;-63
2023/12/27 01:04:11;;;;;;;4.23;1.83;;;7.00;99.90;;;;;;5031884;28;20474;-63
2023/12/27 01:06:38;;;;;;;4.87;2.10;;;7.00;99.90;;;;;;5027053;28;20175;-63
2023/12/27 01:09:07;;;;;;;5.40;1.87;;;6.90;99.90;;;;;;5012130;28;20206;-65
2023/12/27 01:11:33;;;;;;;3.87;2.13;;;6.90;99.90;;;;;;4995594;28;20265;-63
2023/12/27 01:14:02;;;;;;;4.03;1.80;;;7.00;99.90;;;;;;4999534;28;20181;-62
2023/12/27 01:16:27;;;;;;;5.13;2.07;;;7.00;99.90;;;;;;5107948;22;20233;-64
2023/12/27 01:18:58;;;;;;;2.77;1.80;;;6.90;99.90;;;;;;5018601;28;20174;-63
2023/12/27 01:21:23;;;;;;;4.23;1.50;;;7.00;99.90;;;;;;5018266;28;20202;-64
2023/12/27 01:23:49;;;;;;;6.73;1.90;;;7.00;99.90;;;;;;5020235;28;20178;-64
2023/12/27 01:26:17;;;;;;;4.37;1.90;;;7.00;99.90;;;;;;5018227;28;20297;-65
2023/12/27 01:28:47;;;;;;;4.07;1.67;;;7.00;99.90;;;;;;5018453;28;20185;-64
2023/12/27 01:31:13;;;;;;;4.07;1.57;;;7.00;99.90;;;;;;5018226;28;20194;-64
2023/12/27 01:33:40;;;;;;;5.17;2.30;;;7.00;99.90;;;;;;5018579;28;20178;-63
2023/12/27 01:36:11;;;;;;;3.87;1.80;;;7.10;99.90;;;;;;5035378;28;20235;-64
2023/12/27 01:38:36;;;;;;;5.33;1.83;;;7.10;99.90;;;;;;5018340;28;20206;-64
2023/12/27 01:41:02;;;;;;;4.93;2.10;;;7.10;99.90;;;;;;5021983;28;20192;-64
2023/12/27 01:43:28;;;;;;;4.63;1.80;;;7.20;99.90;;;;;;5017573;28;20277;-64
2023/12/27 01:45:54;;;;;;;6.20;2.13;;;7.20;99.90;;;;;;5018029;28;20174;-62
2023/12/27 01:48:22;;;;;;;4.40;1.83;;;7.20;99.90;;;;;;5017443;28;20261;-63
2023/12/27 01:50:51;;;;;;;5.53;1.83;;;7.30;99.90;;;;;;5017724;28;20422;-63
2023/12/27 01:53:18;;;;;;;4.60;1.90;;;7.30;99.90;;;;;;5017917;28;20261;-64
2023/12/27 01:55:47;;;;;;;5.63;1.93;;;7.30;99.90;;;;;;5017808;28;20197;-63
2023/12/27 01:58:13;;;;;;;5.07;1.80;;;7.30;99.90;;;;;;5017721;28;20178;-64
2023/12/27 02:00:41;;;;;;;4.57;1.80;;;7.40;99.90;;;;;;5017843;28;20174;-64
2023/12/27 02:03:08;;;;;;;4.93;1.83;;;7.40;99.90;;;;;;5018021;28;20178;-65
2023/12/27 02:05:35;;;;;;;6.07;2.13;;;7.40;99.90;;;;;;5016228;28;20178;-65
2023/12/27 02:08:03;;;;;;;5.20;1.80;;;7.40;99.90;;;;;;5017107;28;20214;-63
2023/12/27 02:10:29;;;;;;;4.77;1.63;;;7.50;99.90;;;;;;5017604;28;20273;-63
2023/12/27 02:12:55;;;;;;;4.17;1.90;;;7.50;99.90;;;;;;5017748;28;20277;-62
2023/12/27 02:15:26;;;;;;;2.90;1.70;;;7.50;99.90;;;;;;5017685;28;20170;-64
2023/12/27 02:17:55;;;;;;;4.67;1.60;;;7.60;99.90;;;;;;5017542;28;20186;-64
2023/12/27 02:20:22;;;;;;;2.97;1.60;;;7.60;99.90;;;;;;5017647;28;20269;-64
2023/12/27 02:22:49;;;;;;;2.93;1.70;;;7.60;99.90;;;;;;5017804;28;20238;-64
2023/12/27 02:25:15;;;;;;;2.73;1.33;;;7.60;99.90;;;;;;5014151;28;20226;-63
2023/12/27 02:27:41;;;;;;;4.03;1.57;;;7.60;99.90;;;;;;4997887;28;20205;-65
2023/12/27 02:30:07;;;;;;;4.70;1.50;;;7.60;99.90;;;;;;4997877;28;20205;-65
2023/12/27 02:32:32;;;;;;;5.93;1.77;;;7.60;99.90;;;;;;5005241;28;20194;-64
2023/12/27 02:34:58;;;;;;;4.40;1.50;;;7.60;99.90;;;;;;5034720;28;20173;-64
2023/12/27 02:37:23;;;;;;;3.13;1.60;;;7.50;99.90;;;;;;5017536;28;20190;-64
2023/12/27 02:39:51;;;;;;;3.87;1.57;;;7.50;99.90;;;;;;5017653;28;20174;-63
2023/12/27 02:42:19;;;;;;;3.23;1.40;;;7.50;99.90;;;;;;5016233;28;20190;-64
2023/12/27 02:44:45;;;;;;;2.43;1.30;;;7.50;99.90;;;;;;5017495;28;20170;-64
2023/12/27 02:47:13;;;;;;;7.57;1.67;;;7.40;99.90;;;;;;5017392;28;20211;-65
2023/12/27 02:49:39;;;;;;;3.33;1.60;;;7.40;99.90;;;;;;5017503;28;20189;-63
2023/12/27 02:52:07;;;;;;;4.80;1.40;;;7.40;99.90;;;;;;5017579;28;20174;-65
2023/12/27 02:54:33;;;;;;;5.07;1.70;;;7.40;99.90;;;;;;5017586;28;20233;-64
2023/12/27 02:57:00;;;;;;;5.50;2.07;;;7.40;99.90;;;;;;5017385;28;20296;-65
2023/12/27 02:59:31;;;;;;;5.87;2.43;;;7.40;99.90;;;;;;5014519;28;20176;-64
2023/12/27 03:01:56;;;;;;;3.37;1.80;;;7.30;99.90;;;;;;4997669;28;20261;-64
2023/12/27 03:04:22;;;;;;;5.50;2.00;;;7.30;99.90;;;;;;4997589;28;20294;-64
2023/12/27 03:06:50;;;;;;;4.50;2.00;;;7.30;99.90;;;;;;5006846;28;20281;-64
2023/12/27 03:09:16;;;;;;;6.60;2.47;;;7.30;99.90;;;;;;5017370;28;20328;-64
2023/12/27 03:11:44;;;;;;;4.70;1.50;;;7.20;99.90;;;;;;5017281;28;20288;-63
2023/12/27 03:14:09;;;;;;;4.33;1.80;;;7.20;99.90;;;;;;4997519;28;20250;-64
2023/12/27 03:16:37;;;;;;;5.60;1.70;;;7.20;99.90;;;;;;4997519;28;20256;-63
2023/12/27 03:19:03;;;;;;;4.97;1.63;;;7.20;99.90;;;;;;5014713;28;20196;-64
2023/12/27 03:21:28;;;;;;;3.13;1.57;;;7.20;99.90;;;;;;5020476;28;20178;-64
2023/12/27 03:23:54;;;;;;;6.97;1.73;;;7.20;99.90;;;;;;5020912;28;20205;-64
2023/12/27 03:26:22;;;;;;;3.73;1.53;;;7.20;99.90;;;;;;5020704;28;20182;-64
2023/12/27 03:28:52;;;;;;;3.47;1.70;;;7.20;99.90;;;;;;5020546;28;20173;-64
2023/12/27 03:31:18;;;;;;;2.47;1.47;;;7.30;99.90;;;;;;5020762;28;20214;-64
2023/12/27 03:33:43;;;;;;;6.60;1.80;;;7.30;99.90;;;;;;5019027;28;20174;-64
2023/12/27 03:36:09;;;;;;;4.87;1.93;;;7.30;99.90;;;;;;5023110;28;20217;-65
2023/12/27 03:38:37;;;;;;;4.33;1.80;;;7.30;99.90;;;;;;5027763;28;20209;-65
2023/12/27 03:41:06;;;;;;;6.97;2.27;;;7.30;99.90;;;;;;5020660;28;20232;-65
2023/12/27 03:43:31;;;;;;;5.77;1.67;;;7.40;99.90;;;;;;5021410;28;20170;-64
2023/12/27 03:46:00;;;;;;;3.50;1.70;;;7.40;99.90;;;;;;5022443;28;20176;-64
2023/12/27 03:48:26;;;;;;;5.33;2.00;;;7.40;99.90;;;;;;5012316;28;20178;-63
2023/12/27 03:50:52;;;;;;;5.63;1.87;;;7.40;99.90;;;;;;5001515;28;20202;-64
2023/12/27 03:53:17;;;;;;;3.00;1.67;;;7.40;99.90;;;;;;5001696;28;20207;-65
2023/12/27 03:55:43;;;;;;;3.20;1.50;;;7.50;99.90;;;;;;5000409;28;20514;-64
2023/12/27 03:58:09;;;;;;;6.70;2.10;;;7.50;99.90;;;;;;5000130;28;20198;-64
2023/12/27 04:00:36;;;;;;;5.63;2.10;;;7.50;99.90;;;;;;5000325;28;20186;-65
2023/12/27 04:03:02;;;;;;;6.80;1.73;;;7.50;99.90;;;;;;5000140;28;20217;-65
2023/12/27 04:05:28;;;;;;;3.67;1.73;;;7.50;99.90;;;;;;5007088;28;20201;-65
2023/12/27 04:07:56;;;;;;;4.53;1.90;;;7.50;99.90;;;;;;5020158;28;20248;-63
2023/12/27 04:10:21;;;;;;;5.33;2.07;;;7.40;99.90;;;;;;5018273;28;20206;-63
2023/12/27 04:12:47;;;;;;;6.97;2.17;;;7.50;99.90;;;;;;5019858;28;20244;-64
2023/12/27 04:15:13;;;;;;;5.03;2.00;;;7.50;99.90;;;;;;5019590;28;20186;-65
2023/12/27 04:17:39;;;;;;;4.67;1.97;;;7.50;99.90;;;;;;5020062;28;20182;-64
2023/12/27 04:20:06;;;;;;;4.90;1.93;;;7.50;99.90;;;;;;5019827;28;20170;-64
2023/12/27 04:22:36;;;;;;;2.67;1.90;;;7.50;99.90;;;;;;5020152;28;20174;-64
2023/12/27 04:25:04;;;;;;;4.90;1.90;;;7.50;99.90;;;;;;5019679;28;20169;-64
2023/12/27 04:27:32;;;;;;;3.03;1.80;;;7.60;99.90;;;;;;5012248;28;20198;-64
2023/12/27 04:29:59;;;;;;;2.80;1.63;;;7.60;99.90;;;;;;5016723;28;20190;-64
2023/12/27 04:32:25;;;;;;;4.50;2.30;;;7.60;99.90;;;;;;5018785;28;20211;-64
2023/12/27 04:34:51;;;;;;;4.00;2.07;;;7.70;99.90;;;;;;5019382;28;20263;-65
2023/12/27 04:37:18;;;;;;;5.03;1.80;;;7.60;99.90;;;;;;5019448;28;20214;-64
2023/12/27 04:39:46;;;;;;;6.67;2.50;;;7.70;99.90;;;;;;5018874;28;20202;-64
2023/12/27 04:42:12;;;;;;;3.83;2.23;;;7.70;99.90;;;;;;5019328;28;20188;-64
2023/12/27 04:44:38;;;;;;;3.53;1.73;;;7.70;99.90;;;;;;5019088;28;20177;-64
2023/12/27 04:47:08;;;;;;;4.90;2.20;;;7.70;99.90;;;;;;5019288;28;20166;-64
2023/12/27 04:49:34;;;;;;;6.13;2.47;;;7.70;99.90;;;;;;5018835;28;20225;-63
2023/12/27 04:51:59;;;;;;;4.03;2.30;;;7.80;99.90;;;;;;5024411;28;20229;-64
2023/12/27 04:54:25;;;;;;;3.63;2.10;;;7.80;99.90;;;;;;5055931;28;20174;-65
2023/12/27 04:56:54;;;;;;;5.40;2.40;;;7.80;99.90;;;;;;5029948;28;20194;-64
2023/12/27 04:59:23;;;;;;;4.47;1.97;;;7.80;99.90;;;;;;5018905;28;20201;-64
2023/12/27 05:01:50;;;;;;;4.27;1.97;;;7.80;99.90;;;;;;5018869;28;20204;-64
2023/12/27 05:04:18;;;;;;;3.80;1.90;;;8.00;99.90;;;;;;5018835;28;20178;-64
2023/12/27 05:06:44;;;;;;;4.67;2.20;;;7.90;99.90;;;;;;5016845;28;20267;-64
2023/12/27 05:09:12;;;;;;;4.03;2.10;;;7.90;99.90;;;;;;5018555;28;20198;-65
2023/12/27 05:11:38;;;;;;;3.87;1.90;;;7.90;99.90;;;;;;5018295;28;20274;-64
2023/12/27 05:14:06;;;;;;;4.60;1.97;;;8.00;99.90;;;;;;5019845;28;20205;-63
2023/12/27 05:16:34;;;;;;;4.40;2.20;;;8.00;99.90;;;;;;5018276;28;20264;-63
2023/12/27 05:19:03;;;;;;;4.17;2.40;;;8.10;99.90;;;;;;5018711;28;20174;-64
2023/12/27 05:21:31;;;;;;;5.97;2.60;;;8.10;99.90;;;;;;5018471;28;20205;-65
2023/12/27 05:23:57;;;;;;;3.83;2.33;;;8.10;99.90;;;;;;5018497;28;20202;-64
2023/12/27 05:26:25;;;;;;;3.37;2.17;;;8.10;99.90;;;;;;5018503;28;20205;-64
2023/12/27 05:28:51;;;;;;;4.63;2.33;;;8.30;99.90;;;;;;5018312;28;20166;-64
2023/12/27 05:31:16;;;;;;;3.83;2.20;;;8.30;99.90;;;;;;5018532;28;20272;-64
2023/12/27 05:33:44;;;;;;;3.87;2.37;;;8.40;99.90;;;;;;5015068;28;20252;-63
2023/12/27 05:36:10;;;;;;;5.30;2.60;;;8.30;99.90;;;;;;5018213;28;20174;-64
2023/12/27 05:38:38;;;;;;;5.88;2.50;;;8.40;99.90;;;;;;5017883;28;20262;-64
2023/12/27 05:41:03;;;;;;;4.10;2.23;;;8.40;99.90;;;;;;5021854;28;20208;-64
2023/12/27 05:43:29;;;;;;;4.43;2.50;;;8.60;99.90;;;;;;5037095;28;20188;-65
2023/12/27 05:45:57;;;;;;;7.50;2.72;;;8.50;99.90;;;;;;5031448;28;20178;-65
2023/12/27 05:48:23;;;;;;;5.03;2.20;;;8.60;99.90;;;;;;5017853;28;20208;-65
2023/12/27 05:50:51;;;;;;;5.67;2.20;;;8.60;99.90;;;;;;5014260;28;20253;-65
2023/12/27 05:53:17;;;;;;;5.07;2.50;;;8.60;99.90;;;;;;4998356;28;20175;-64
2023/12/27 05:55:42;;;;;;;4.70;2.50;;;8.70;99.90;;;;;;4998530;28;20217;-64
2023/12/27 05:58:08;;;;;;;5.43;2.25;;;8.80;99.90;;;;;;5011066;28;20205;-65
2023/12/27 06:00:33;;;;;;;4.88;2.20;;;8.70;99.90;;;;;;5017918;28;20174;-64
2023/12/27 06:03:04;;;;;;;3.72;2.10;;;8.80;99.90;;;;;;5017785;28;20202;-65
2023/12/27 06:05:32;;;;;;;3.75;2.15;;;8.70;99.90;;;;;;5017812;28;20174;-64
2023/12/27 06:08:00;;;;;;;4.85;2.30;;;8.80;99.90;;;;;;5014115;28;20210;-64
2023/12/27 06:10:28;;;;;;;6.32;2.60;;;8.80;99.90;;;;;;5008484;28;20219;-64
2023/12/27 06:12:53;;;;;;;4.93;2.35;;;8.80;99.90;;;;;;5017761;28;20181;-64
2023/12/27 06:15:19;;;;;;;6.97;2.23;;;8.90;99.90;;;;;;5017532;28;20197;-65
2023/12/27 06:17:44;;;;;;;4.60;2.57;;;9.00;99.90;;;;;;5017443;28;20276;-64
2023/12/27 06:20:13;;;;;;;5.53;2.50;;;9.00;99.90;;;;;;5017851;28;20297;-65
2023/12/27 06:22:38;;;;;;;5.57;2.60;;;8.90;99.90;;;;;;5017753;28;20178;-64
2023/12/27 06:25:04;;;;;;;2.80;2.10;;;9.00;99.90;;;;;;5017639;28;20166;-64
2023/12/27 06:27:32;;;;;;;3.60;2.10;;;9.00;99.90;;;;;;5017191;28;20174;-64
2023/12/27 06:30:00;;;;;;;3.10;2.30;;;8.90;99.90;;;;;;4997905;28;20190;-64
2023/12/27 06:32:26;;;;;;;5.20;2.00;;;9.00;99.90;;;;;;4997691;28;20199;-64
2023/12/27 06:34:51;;;;;;;3.90;2.00;;;9.00;99.90;;;;;;5004841;28;20170;-64
2023/12/27 06:37:19;;;;;;;4.15;2.03;;;9.00;99.90;;;;;;5001119;28;20240;-64
2023/12/27 06:39:47;;;;;;;3.88;2.22;;;9.10;99.90;;;;;;5017525;28;20166;-64
2023/12/27 06:42:13;;;;;;;5.70;2.05;;;9.10;99.90;;;;;;5017670;28;20307;-65
2023/12/27 06:44:38;;;;;;;4.45;2.30;;;9.10;99.90;;;;;;5015666;28;20417;-64
2023/12/27 06:47:04;;;;;;;5.60;1.95;;;9.10;99.90;;;;;;5016879;28;20262;-65
2023/12/27 06:49:29;;;;;;;5.03;1.98;;;9.10;99.90;;;;;;5017465;28;20202;-65
2023/12/27 06:51:55;;;;;;;3.45;1.75;;;9.10;99.90;;;;;;5017355;28;20193;-65
2023/12/27 06:54:21;;;;;;;3.80;1.70;;;9.10;99.90;;;;;;5017511;28;20194;-65
2023/12/27 06:56:48;;;;;;;3.72;1.85;;;9.20;99.90;;;;;;5024375;28;20188;-65
2023/12/27 06:59:14;;;;;;;4.15;1.77;;;9.20;99.90;;;;;;5014737;28;20202;-64
2023/12/27 07:01:39;;;;;;;4.00;1.73;;;9.10;99.90;;;;;;5017777;28;20178;-64
2023/12/27 07:04:05;;;;;;;3.65;1.90;;;9.20;99.90;;;;;;5017763;28;20226;-65
2023/12/27 07:06:31;;;;;;;4.00;1.75;;;9.20;99.90;;;;;;5027727;28;20193;-65
2023/12/27 07:08:59;;;;;;;3.58;1.52;;;9.20;99.90;;;;;;5020778;28;20216;-65
2023/12/27 07:11:25;;;;;;;3.58;1.50;;;9.30;99.90;;;;;;5021068;28;20223;-64
2023/12/27 07:13:50;;;;;;;3.03;1.63;;;9.30;99.90;;;;;;5020732;28;20234;-64
2023/12/27 07:16:18;;;;;;;3.45;1.80;;;9.30;99.90;;;;;;5020749;28;20197;-64
2023/12/27 07:18:46;;;;;;;5.35;2.17;;;9.30;99.90;;;;;;5018044;28;20214;-64
2023/12/27 07:21:15;;;;;;;4.18;2.03;;;9.30;99.90;;;;;;5020629;28;20178;-64
2023/12/27 07:23:43;;;;;;;3.38;1.95;;;9.40;99.90;;;;;;5020536;28;20208;-63
2023/12/27 07:26:13;;;;;;;4.07;2.30;;;9.40;99.90;;;;;;5020818;28;20178;-63
2023/12/27 07:28:39;;;;;;;3.30;2.05;;;9.40;99.90;;;;;;5020608;28;20241;-63
2023/12/27 07:31:08;;;;;;;3.60;1.90;;;9.40;99.90;;;;;;5020655;28;20284;-64
2023/12/27 07:33:41;;;;;;;3.72;1.95;;;9.50;99.90;;;;;;5020484;28;20174;-64
2023/12/27 07:36:09;;;;;;;3.90;1.85;;;9.40;99.90;;;;;;5012565;28;20208;-64
2023/12/27 07:38:35;;;;;;;3.42;2.22;;;9.50;99.90;;;;;;5011991;28;20177;-64
2023/12/27 07:41:01;;;;;;;3.90;1.95;;;9.60;99.90;;;;;;5020276;28;20174;-65
2023/12/27 07:43:29;;;;;;;3.10;2.10;;;9.50;99.90;;;;;;5020484;28;20270;-63
2023/12/27 07:45:55;;;;;;;4.05;2.00;;;9.50;99.90;;;;;;5020497;28;20174;-64
2023/12/27 07:48:20;;;;;;;2.88;2.13;;;9.60;99.90;;;;;;5020231;28;20236;-64
2023/12/27 07:50:48;;;;;;;3.10;1.70;;;9.50;99.90;;;;;;5020433;28;20264;-63
2023/12/27 07:53:16;;;;;;;2.53;1.90;;;9.60;99.90;;;;;;5020324;28;20198;-64
2023/12/27 07:55:45;;;;;;;2.53;1.65;;;9.60;99.90;;;;;;5020249;28;20329;-64
2023/12/27 07:58:12;;;;;;;3.33;2.10;;;9.60;99.90;;;;;;5016854;28;20174;-63
2023/12/27 08:00:40;;;;;;;4.53;2.15;;;9.70;99.90;;;;;;5019184;28;20197;-64
2023/12/27 08:03:08;;;;;;;3.42;1.85;;;9.70;99.90;;;;;;5019905;28;20166;-63
2023/12/27 08:05:38;;;;;;;4.00;1.95;;;9.70;99.90;;;;;;5019583;28;20201;-63
2023/12/27 08:08:04;;;;;;;3.58;1.90;;;9.70;99.90;;;;;;5018593;28;20174;-63
2023/12/27 08:10:31;;;;;;;3.28;1.90;;;9.80;99.90;;;;;;5019771;28;20219;-64
2023/12/27 08:12:58;;;;;;;3.22;2.00;;;9.80;99.90;;;;;;5019682;28;20178;-64
2023/12/27 08:15:24;;;;;;;4.43;2.00;;;9.80;99.90;;;;;;5019378;28;20185;-64
2023/12/27 08:17:52;;;;;;;2.67;1.80;;;9.80;99.90;;;;;;5019551;28;20185;-65
2023/12/27 08:20:20;;;;;;;2.15;1.60;;;9.90;99.90;;;;;;5019666;28;20182;-64
2023/12/27 08:22:45;;;;;;;2.20;1.60;;;9.90;99.90;;;;;;5019584;28;20293;-64
2023/12/27 08:25:13;;;;;;;2.63;1.77;;;9.90;99.90;;;;;;5019916;28;20213;-63
2023/12/27 08:27:39;;;;;;;2.85;1.48;;;9.90;99.90;;;;;;5019701;28;20188;-65
2023/12/27 08:30:05;;;;;;;3.58;1.85;;;10.10;99.90;;;;;;5025159;28;20201;-64
2023/12/27 08:32:31;;;;;;;3.17;1.63;;;10.00;99.90;;;;;;5037402;28;20196;-64
2023/12/27 08:34:56;;;;;;;2.67;1.80;;;10.00;99.90;;;;;;5021360;28;20437;-64
2023/12/27 08:37:22;;;;;;;3.50;1.75;;;10.00;99.90;;;;;;5019305;28;20180;-64
2023/12/27 08:39:50;;;;;;;1.92;1.70;;;10.00;99.90;;;;;;5019081;28;20205;-64
2023/12/27 08:42:15;;;;;;;2.78;1.90;;;10.00;99.90;;;;;;5019392;28;20192;-64
2023/12/27 08:44:41;;;;;;;3.60;1.70;;;10.10;99.90;;;;;;5019388;28;20200;-64
2023/12/27 08:47:06;;;;;;;2.60;1.80;;;10.20;99.90;;;;;;5018978;28;20198;-64
2023/12/27 08:49:34;;;;;;;2.13;1.50;;;10.20;99.90;;;;;;5019219;28;20174;-64
2023/12/27 08:52:00;;;;;;;2.05;1.50;;;10.20;99.90;;;;;;5017704;28;20198;-64
2023/12/27 08:54:28;;;;;;;3.72;2.10;;;10.20;99.90;;;;;;4999591;28;20202;-64
2023/12/27 08:56:57;;;;;;;2.08;1.52;;;10.30;99.90;;;;;;5000040;28;20174;-64
2023/12/27 08:59:30;;;;;;;2.20;1.50;;;10.30;99.90;;;;;;5000429;28;20192;-64
2023/12/27 09:01:55;;;;;;;2.80;1.73;;;10.30;99.90;;;;;;5015453;28;20175;-64
2023/12/27 09:04:21;;;;;;;2.28;1.60;;;10.30;99.90;;;;;;5015586;28;20189;-64
2023/12/27 09:06:46;;;;;;;2.08;1.70;;;10.30;99.90;;;;;;5018438;28;20201;-64
2023/12/27 09:09:12;;;;;;;2.65;1.90;;;10.30;99.90;;;;;;5018586;28;20257;-64
2023/12/27 09:11:38;;;;;;;2.70;1.73;;;10.40;99.90;;;;;;5018553;28;20217;-65
2023/12/27 09:14:05;;;;;;;2.10;1.60;;;10.40;99.90;;;;;;5018740;28;20184;-64
2023/12/27 09:16:32;;;;;;;2.38;1.70;;;10.40;99.90;;;;;;5018243;28;20185;-63
2023/12/27 09:18:59;;;;;;;2.72;1.80;;;10.40;99.90;;;;;;5014231;28;20183;-64
2023/12/27 09:21:25;;;;;;;3.67;1.95;;;10.40;99.90;;;;;;4998647;28;20236;-64
2023/12/27 09:23:50;;;;;;;2.55;1.88;;;10.50;99.90;;;;;;5005855;28;20206;-64
2023/12/27 09:26:17;;;;;;;3.60;1.98;;;10.50;99.90;;;;;;5023356;28;20254;-63
2023/12/27 09:28:43;;;;;;;2.90;1.63;;;10.50;99.90;;;;;;5038079;28;20227;-63
2023/12/27 09:31:08;;;;;;;2.92;1.83;;;10.50;99.90;;;;;;5037977;28;20554;-64
2023/12/27 09:33:34;;;;;;;2.60;1.70;;;10.50;99.90;;;;;;5038100;28;20193;-64
2023/12/27 09:36:02;;;;;;;2.17;1.63;;;10.50;99.90;;;;;;5033318;28;20181;-64
2023/12/27 09:38:27;;;;;;;2.38;1.63;;;10.50;99.90;;;;;;5000649;28;20217;-64
2023/12/27 09:40:54;;;;;;;4.22;1.50;;;10.50;99.90;;;;;;4998448;28;20186;-64
2023/12/27 09:43:21;;;;;;;1.77;1.60;;;10.60;99.90;;;;;;4998521;28;20171;-63
2023/12/27 09:45:48;;;;;;;2.53;1.60;;;10.60;99.90;;;;;;4998034;28;20215;-64
2023/12/27 09:48:17;;;;;;;3.25;1.70;;;10.60;99.90;;;;;;4998112;28;20214;-63
2023/12/27 09:50:43;;;;;;;2.28;1.45;;;10.60;99.90;;;;;;4998092;28;20209;-64
2023/12/27 09:53:13;;;;;;;2.38;1.38;;;10.60;99.90;;;;;;4998107;28;20173;-64
2023/12/27 09:55:39;;;;;;;2.42;2.00;;;10.70;99.90;;;;;;5000849;28;20202;-64
2023/12/27 09:58:05;;;;;;;2.28;1.65;;;10.70;99.90;;;;;;5016257;28;20221;-65
2023/12/27 10:00:35;;;;;;;3.08;1.77;;;10.70;99.90;;;;;;5015290;28;20207;-64
2023/12/27 10:03:04;;;;;;;2.65;1.83;;;10.70;99.90;;;;;;5015475;28;20202;-65
2023/12/27 10:05:46;;;;;;;3.50;1.70;;;10.80;99.90;;;;;;5017762;28;20177;-65
2023/12/27 10:08:12;;;;;;;2.55;1.40;;;10.80;99.90;;;;;;5015286;28;20198;-64
2023/12/27 10:10:42;;;;;;;3.10;1.67;;;10.80;99.90;;;;;;4999441;28;20212;-64
2023/12/27 10:13:11;;;;;;;4.18;1.58;;;10.80;99.90;;;;;;5017211;28;20178;-64
2023/12/27 10:15:36;;;;;;;2.20;1.38;;;10.80;99.90;;;;;;5017365;28;20166;-64
2023/12/27 10:18:03;;;;;;;2.42;1.67;;;10.90;99.90;;;;;;5017448;28;20192;-64
2023/12/27 10:20:33;;;;;;;3.80;1.60;;;10.90;99.90;;;;;;5029019;28;20336;-64
2023/12/27 10:23:00;;;;;;;2.50;1.80;;;10.90;99.90;;;;;;5019860;28;20261;-64
2023/12/27 10:25:28;;;;;;;1.90;1.48;;;10.90;99.90;;;;;;5017204;28;20205;-64
2023/12/27 10:27:57;;;;;;;1.95;1.60;;;10.90;99.90;;;;;;5017272;28;20178;-65
2023/12/27 10:30:22;;;;;;;2.63;1.65;;;11.00;99.90;;;;;;4999961;28;20221;-65
2023/12/27 10:32:59;;;;;;;2.55;1.70;;;11.00;99.90;;;;;;5006631;28;20174;-64
2023/12/27 10:35:27;;;;;;;3.53;1.48;;;10.90;99.90;;;;;;5021570;28;20212;-65
2023/12/27 10:38:06;;;;;;;2.42;1.50;;;11.00;99.90;;;;;;5019201;28;20301;-64
2023/12/27 10:40:36;;;;;;;2.03;1.40;;;11.00;99.90;;;;;;5001868;28;20175;-64
2023/12/27 10:43:02;;;;;;;2.65;1.33;;;11.00;99.90;;;;;;5001612;28;20203;-65
2023/12/27 10:45:28;;;;;;;2.80;1.38;;;11.00;99.90;;;;;;5001401;28;20186;-66
2023/12/27 10:47:59;;;;;;;1.65;1.20;;;11.00;99.90;;;;;;5001669;28;20185;-64
2023/12/27 10:50:27;;;;;;;1.80;1.10;;;11.10;99.90;;;;;;5018898;28;20205;-64
2023/12/27 10:53:09;;;;;;;0.98;0.75;;;11.10;99.90;;;;;;5020858;28;20272;-65
2023/12/27 10:55:38;;;;;;;1.40;0.90;;;11.10;99.90;;;;;;5020855;28;20220;-65
2023/12/27 10:58:15;;;;;;;1.15;0.80;;;11.20;99.90;;;;;;5016694;28;20232;-64
2023/12/27 11:00:42;;;;;;;0.88;0.57;;;11.30;99.90;;;;;;5018584;28;20225;-64
2023/12/27 11:03:09;;;;;;;0.95;0.73;;;11.30;99.90;;;;;;5015339;28;20209;-65
2023/12/27 11:05:37;;;;;;;1.10;0.80;;;11.30;99.90;;;;;;5020772;28;20192;-65
2023/12/27 11:08:03;;;;;;;0.80;0.50;;;11.40;99.90;;;;;;5020962;28;20170;-65
2023/12/27 11:10:30;;;;;;;1.08;0.77;;;11.50;99.90;;;;;;5020906;28;20446;-64
2023/12/27 11:12:59;;;;;;;1.92;0.85;;;11.60;99.90;;;;;;5020901;28;20208;-65
2023/12/27 11:15:26;;;;;;;1.25;0.80;;;11.60;99.90;;;;;;5020758;28;20174;-65
2023/12/27 11:17:56;;;;;;;2.88;0.80;;;11.70;99.90;;;;;;5020530;28;20210;-65
2023/12/27 11:20:25;;;;;;;1.00;0.80;;;11.80;99.90;;;;;;5039292;28;20181;-65
2023/12/27 11:22:52;;;;;;;0.85;0.77;;;11.80;99.90;;;;;;5040459;28;20197;-65
2023/12/27 11:25:20;;;;;;;2.33;1.00;;;11.80;99.90;;;;;;5040396;28;20180;-65
2023/12/27 11:27:46;;;;;;;2.20;0.80;;;11.90;99.90;;;;;;5028020;28;20178;-66
2023/12/27 11:30:15;;;;;;;1.10;0.55;;;11.90;99.90;;;;;;5020458;28;20292;-66
2023/12/27 11:32:41;;;;;;;1.13;0.52;;;12.00;99.90;;;;;;5020597;28;20170;-65
2023/12/27 11:35:22;;;;;;;0.93;0.50;;;12.00;99.90;;;;;;5020203;28;20262;-65
2023/12/27 11:37:49;;;;;;;0.70;0.60;;;12.00;99.90;;;;;;5016293;28;20189;-64
2023/12/27 11:40:33;;;;;;;1.13;0.43;;;12.10;99.90;;;;;;5019717;28;20197;-65
2023/12/27 11:43:01;;;;;;;0.63;0.35;;;12.10;99.90;;;;;;5020140;28;20158;-64
2023/12/27 11:46:00;;;;;;;0.57;0.50;;;12.10;99.90;;;;;;5037772;28;20170;-64
2023/12/27 11:48:30;;;;;;;1.92;0.50;;;12.10;99.90;;;;;;5020055;28;20201;-63
2023/12/27 11:50:56;;;;;;;0.82;0.50;;;12.20;99.90;;;;;;5020039;28;20197;-64
2023/12/27 11:53:25;;;;;;;1.20;0.43;;;12.20;99.90;;;;;;5020225;28;20209;-64
2023/12/27 11:55:53;;;;;;;1.05;0.50;;;12.20;99.90;;;;;;5020155;28;20216;-64
2023/12/27 11:58:33;;;;;;;1.48;0.60;;;12.20;99.90;;;;;;5019123;28;20427;-65
2023/12/27 12:01:25;;;;;;;0.75;0.55;;;12.20;99.90;;;;;;5020086;28;20180;-64
2023/12/27 12:04:02;;;;;;;0.77;0.50;;;12.20;99.90;;;;;;5019572;28;20239;-64
2023/12/27 12:06:59;;;;;;;2.10;0.45;;;12.30;99.90;;;;;;5019940;28;20174;-64
2023/12/27 12:09:40;;;;;;;0.50;0.47;;;12.30;99.90;;;;;;5019535;28;20180;-64
2023/12/27 12:12:17;;;;;;;0.47;0.40;;;12.30;99.90;;;;;;5019546;28;20202;-64
2023/12/27 12:14:45;;;;;;;0.85;0.50;;;12.30;99.90;;;;;;5029008;28;20264;-64
2023/12/27 12:17:13;;;;;;;1.08;0.40;;;12.30;99.90;;;;;;5039527;28;20235;-65
2023/12/27 12:19:42;;;;;;;0.40;0.40;;;12.40;99.90;;;;;;5039752;28;20181;-63
2023/12/27 12:22:10;;;;;;;1.08;0.50;;;12.50;99.90;;;;;;5015676;28;20203;-62
2023/12/27 12:24:35;;;;;;;0.98;0.50;;;12.50;99.90;;;;;;5019150;28;20204;-65
2023/12/27 12:27:02;;;;;;;0.63;0.55;;;12.60;99.90;;;;;;5019452;28;20181;-65
2023/12/27 12:29:28;;;;;;;1.20;0.70;;;12.60;99.90;;;;;;5018925;28;20229;-65
2023/12/27 12:31:55;;;;;;;0.80;0.60;;;12.60;99.90;;;;;;5019166;28;20232;-65
2023/12/27 12:34:21;;;;;;;1.33;0.60;;;12.60;99.90;;;;;;5019419;28;20244;-65
2023/12/27 12:36:47;;;;;;;1.17;0.60;;;12.60;99.90;;;;;;5036514;28;20174;-63
2023/12/27 12:39:16;;;;;;;0.85;0.50;;;12.60;99.90;;;;;;5019403;28;20177;-63
2023/12/27 12:41:42;;;;;;;1.00;0.40;;;12.60;99.90;;;;;;5014961;28;20182;-64
2023/12/27 12:44:10;;;;;;;0.93;0.50;;;12.50;99.90;;;;;;5013832;28;20174;-64
2023/12/27 12:46:36;;;;;;;0.95;0.52;;;12.60;99.90;;;;;;5018779;28;20190;-63
2023/12/27 12:49:03;;;;;;;0.82;0.60;;;12.60;99.90;;;;;;5018955;28;20328;-64
2023/12/27 12:51:29;;;;;;;2.13;0.60;;;12.60;99.90;;;;;;5018882;28;20248;-64
2023/12/27 12:53:56;;;;;;;0.77;0.57;;;12.60;99.90;;;;;;5018444;28;20193;-64